Oberlin, Ohio
Current Conditions -  °F | °C
As of 8:53 AM on Friday 24 Oct 2014 (Local Time) from KLPR Reporting Station
Haze Haze  
Wind Chill: 36°   Ceiling: Unl
Heat Index: 39°   Visibility: 3mi
Dew Point: 38°   Wind: 5mph
Humidity: 96%   Direction: 220°SW
Pressure: 30.11"   Gusts: NA
Location:  41.29°N, 82.22°W
Report Text: KLPR 241253Z AUTO 22004KT 3SM BR CLR 04/03 A3011 RMK AO2 SLP201 T00390033 TSNO
Loading
Personal Weather Stations






























Interactive Weather Map
Tropical Storm Tracking
New forecast layout! Learn more

10-Day Weather Forecast

Advertisements
Track Severe Weather on mobile